createdAt,value
2023-05-04T00:00:00.577Z,100017.45
2023-05-04T00:02:27.898Z,100016.30
2023-05-04T00:04:55.514Z,100019.55
2023-05-04T00:07:23.077Z,100016.28
2023-05-04T00:09:51.159Z,100017.59
2023-05-04T00:12:18.938Z,100017.45
2023-05-04T00:14:46.058Z,100022.03
2023-05-04T00:17:13.332Z,100019.05
2023-05-04T00:19:42.447Z,100025.46
2023-05-04T00:22:09.835Z,100025.46
2023-05-04T00:24:37.088Z,100026.80
2023-05-04T00:27:04.639Z,100025.38
2023-05-04T00:29:32.154Z,100029.77
2023-05-04T00:31:59.301Z,100027.16
2023-05-04T00:34:27.058Z,100028.88
2023-05-04T00:36:54.234Z,100021.86
2023-05-04T00:39:22.876Z,100023.63
2023-05-04T00:41:50.138Z,100021.70
2023-05-04T00:44:17.565Z,100026.33
2023-05-04T00:46:44.857Z,100025.30
2023-05-04T00:49:13.274Z,100023.58
2023-05-04T00:51:41.070Z,100027.41
2023-05-04T00:54:08.160Z,100027.63
2023-05-04T00:56:41.502Z,100030.25
2023-05-04T00:59:08.605Z,100038.61
2023-05-04T01:01:36.365Z,100038.58
2023-05-04T01:04:04.390Z,100040.89
2023-05-04T01:07:07.464Z,100034.26
2023-05-04T01:09:34.867Z,100032.16
2023-05-04T01:12:22.729Z,100031.44
2023-05-04T01:14:53.990Z,100040.94
2023-05-04T01:17:22.602Z,100037.74
2023-05-04T01:19:51.342Z,100029.20
2023-05-04T01:22:18.677Z,100030.96
2023-05-04T01:24:46.176Z,100022.12
2023-05-04T01:27:45.663Z,100020.64
2023-05-04T01:30:45.883Z,100021.02
2023-05-04T01:33:16.162Z,100021.77
2023-05-04T01:35:43.517Z,100018.48
2023-05-04T01:38:11.334Z,100020.20
2023-05-04T01:40:39.988Z,100020.07
2023-05-04T01:43:07.534Z,100009.27
2023-05-04T01:45:34.933Z,100007.27
2023-05-04T01:48:02.099Z,100002.91
2023-05-04T01:50:29.466Z,100009.72
2023-05-04T01:52:57.008Z,99999.10
2023-05-04T01:55:24.157Z,99995.63
2023-05-04T01:57:51.731Z,99998.94
2023-05-04T02:00:19.091Z,99995.11
2023-05-04T02:02:46.823Z,99992.95
2023-05-04T02:05:17.561Z,99999.50
2023-05-04T02:07:44.900Z,99998.11
2023-05-04T02:10:12.646Z,99995.81
2023-05-04T02:12:43.360Z,100002.38
2023-05-04T02:15:10.919Z,99997.11
2023-05-04T02:17:38.199Z,99994.20
2023-05-04T02:20:06.677Z,99994.50
2023-05-04T02:22:35.258Z,100002.54
2023-05-04T02:25:02.476Z,100003.89
2023-05-04T02:27:29.656Z,100000.88
2023-05-04T02:29:58.620Z,100003.27
2023-05-04T02:32:26.576Z,99997.94
2023-05-04T02:34:54.348Z,99999.35
2023-05-04T02:37:22.490Z,100001.06
2023-05-04T02:39:49.891Z,99996.62
2023-05-04T02:42:17.550Z,100000.45
2023-05-04T02:44:44.819Z,99998.05
2023-05-04T02:47:12.668Z,100000.27
2023-05-04T02:49:39.791Z,99995.16
2023-05-04T02:52:07.167Z,99996.95
2023-05-04T02:54:34.809Z,99988.52
2023-05-04T02:57:01.815Z,99983.85
2023-05-04T02:59:28.989Z,99971.80
2023-05-04T03:01:56.242Z,99970.56
2023-05-04T03:04:23.571Z,99962.02
2023-05-04T03:06:51.541Z,99973.58
2023-05-04T03:09:19.350Z,99978.52
2023-05-04T03:11:46.525Z,99977.99
2023-05-04T03:14:13.686Z,99981.25
2023-05-04T03:16:41.715Z,99983.66
2023-05-04T03:19:09.254Z,99979.08
2023-05-04T03:21:36.324Z,99979.17
2023-05-04T03:24:04.574Z,99987.20
2023-05-04T03:26:32.118Z,99995.57
2023-05-04T03:28:59.150Z,99997.70
2023-05-04T03:31:26.522Z,99998.30
2023-05-04T03:33:53.942Z,99994.48
2023-05-04T03:36:21.425Z,99994.80
2023-05-04T03:38:49.312Z,99999.00
2023-05-04T03:41:16.427Z,99999.27
2023-05-04T03:43:43.709Z,100000.76
2023-05-04T03:46:11.946Z,99997.34
2023-05-04T03:48:40.313Z,100000.91
2023-05-04T03:51:11.518Z,100000.04
2023-05-04T03:53:38.812Z,99999.95
2023-05-04T03:56:08.458Z,100003.80
2023-05-04T03:58:35.513Z,100001.13
2023-05-04T04:01:04.101Z,100005.17
2023-05-04T04:03:31.805Z,100002.06
2023-05-04T04:05:59.349Z,100000.56
2023-05-04T04:08:26.975Z,100003.52
2023-05-04T04:10:54.465Z,100008.25
2023-05-04T04:13:21.945Z,100007.10
2023-05-04T04:15:49.164Z,100010.29
2023-05-04T04:18:16.469Z,100004.83
2023-05-04T04:20:43.688Z,99996.20
2023-05-04T04:23:11.080Z,100000.40
2023-05-04T04:25:38.561Z,100006.64
2023-05-04T04:28:05.608Z,100002.95
2023-05-04T04:30:33.016Z,100006.13
2023-05-04T04:33:00.115Z,100000.55
2023-05-04T04:35:27.779Z,100002.30
2023-05-04T04:37:55.387Z,100003.31
2023-05-04T04:40:22.825Z,100004.63
2023-05-04T04:42:49.806Z,100000.04
2023-05-04T04:45:17.299Z,100000.71
2023-05-04T04:47:45.355Z,99999.80
2023-05-04T04:50:13.285Z,100000.67
2023-05-04T04:52:41.622Z,100004.21
2023-05-04T04:55:09.309Z,100000.98
2023-05-04T04:57:36.406Z,99999.45
2023-05-04T05:00:09.690Z,100002.29
2023-05-04T05:02:37.108Z,99996.77
2023-05-04T05:05:04.793Z,99997.66
2023-05-04T05:07:33.105Z,100001.93
2023-05-04T05:10:00.306Z,100000.17
2023-05-04T05:12:27.396Z,100001.77
2023-05-04T05:14:54.635Z,100006.21
2023-05-04T05:17:21.810Z,100004.79
2023-05-04T05:19:49.470Z,100005.38
2023-05-04T05:22:16.941Z,100007.52
2023-05-04T05:24:44.114Z,100004.65
2023-05-04T05:27:11.185Z,100000.89
2023-05-04T05:29:38.920Z,100003.73
2023-05-04T05:32:06.331Z,100007.98
2023-05-04T05:34:33.833Z,100003.80
2023-05-04T05:37:01.070Z,100000.65
2023-05-04T05:39:29.295Z,100000.23
2023-05-04T05:41:58.405Z,99998.90
2023-05-04T05:44:25.875Z,99999.73
2023-05-04T05:46:52.900Z,99998.70
2023-05-04T05:49:20.016Z,100002.86
2023-05-04T05:51:47.622Z,100006.50
2023-05-04T05:54:15.359Z,100012.92
2023-05-04T05:56:42.577Z,100004.96
2023-05-04T05:59:09.837Z,100001.24
2023-05-04T06:01:37.081Z,100000.10
2023-05-04T06:04:04.419Z,100003.30
2023-05-04T06:06:31.910Z,100001.23
2023-05-04T06:09:00.559Z,100000.55
2023-05-04T06:11:27.721Z,100004.21
2023-05-04T06:13:55.422Z,100007.60
2023-05-04T06:16:25.540Z,100009.30
2023-05-04T06:18:52.634Z,100012.27
2023-05-04T06:21:19.936Z,100011.00
2023-05-04T06:23:47.827Z,100007.14
2023-05-04T06:26:14.955Z,100005.59
2023-05-04T06:28:42.093Z,100002.36
2023-05-04T06:31:09.303Z,99999.77
2023-05-04T06:33:36.445Z,100003.60
2023-05-04T06:36:03.834Z,100003.55
2023-05-04T06:38:31.344Z,100007.38
2023-05-04T06:40:58.496Z,100007.60
2023-05-04T06:43:25.951Z,100009.19
2023-05-04T06:45:53.348Z,100008.89
2023-05-04T06:48:20.361Z,99999.98
2023-05-04T06:50:47.649Z,100005.33
2023-05-04T06:53:14.882Z,100000.90
2023-05-04T06:55:42.282Z,100001.38
2023-05-04T06:58:09.407Z,100001.15
2023-05-04T07:00:37.120Z,99995.30
2023-05-04T07:03:04.416Z,99992.23
2023-05-04T07:05:37.145Z,99990.64
2023-05-04T07:08:04.780Z,99989.85
2023-05-04T07:10:32.798Z,99985.72
2023-05-04T07:12:59.963Z,99988.94
2023-05-04T07:15:27.437Z,99985.25
2023-05-04T07:17:54.784Z,99986.29
2023-05-04T07:20:25.038Z,99986.75
2023-05-04T07:22:56.573Z,99987.77
2023-05-04T07:25:25.139Z,99989.90
2023-05-04T07:27:53.342Z,99990.15
2023-05-04T07:30:21.621Z,99989.39
2023-05-04T07:32:49.019Z,99989.71
2023-05-04T07:35:16.574Z,99988.81
2023-05-04T07:37:44.105Z,99986.80
2023-05-04T07:40:11.963Z,99989.20
2023-05-04T07:42:39.066Z,99989.90
2023-05-04T07:45:08.624Z,99994.80
2023-05-04T07:47:37.331Z,99993.58
2023-05-04T07:50:05.334Z,99999.64
2023-05-04T07:52:33.622Z,100007.81
2023-05-04T07:55:00.900Z,100012.86
2023-05-04T07:57:27.939Z,100015.36
2023-05-04T07:59:56.274Z,100018.08
2023-05-04T08:02:23.906Z,100015.41
2023-05-04T08:04:51.452Z,100015.67
2023-05-04T08:07:19.367Z,100020.63
2023-05-04T08:09:46.712Z,100020.41
2023-05-04T08:12:16.872Z,100019.42
2023-05-04T08:14:47.864Z,100020.80
2023-05-04T08:17:15.038Z,100016.76
2023-05-04T08:19:42.067Z,100011.25
2023-05-04T08:22:09.628Z,100008.77
2023-05-04T08:24:36.616Z,100009.38
2023-05-04T08:27:08.033Z,100010.73
2023-05-04T08:29:37.583Z,100005.02
2023-05-04T08:32:05.297Z,99999.40
2023-05-04T08:34:32.798Z,100000.67
2023-05-04T08:37:00.163Z,100000.08
2023-05-04T08:39:27.143Z,100003.29
2023-05-04T08:41:54.421Z,99999.63
2023-05-04T08:44:22.033Z,99993.18
2023-05-04T08:46:53.824Z,100000.45
2023-05-04T08:49:21.700Z,100002.09
2023-05-04T08:51:52.580Z,100002.78
2023-05-04T08:54:21.627Z,100001.72
2023-05-04T08:56:51.415Z,99998.73
2023-05-04T08:59:23.397Z,99996.60
2023-05-04T09:01:56.587Z,100001.33
2023-05-04T09:04:26.455Z,100004.06
2023-05-04T09:06:54.945Z,100008.00
2023-05-04T09:09:22.583Z,99999.40
2023-05-04T09:11:50.361Z,100006.37
2023-05-04T09:14:17.331Z,100006.05
2023-05-04T09:16:44.574Z,100005.89
2023-05-04T09:19:19.891Z,100007.40
2023-05-04T09:21:51.437Z,100001.19
2023-05-04T09:24:28.698Z,99999.23
2023-05-04T09:26:56.608Z,100000.37
2023-05-04T09:29:25.839Z,99999.40
2023-05-04T09:31:52.978Z,100000.86
2023-05-04T09:34:21.613Z,99999.51
2023-05-04T09:37:02.361Z,100001.03
2023-05-04T09:39:30.676Z,99991.88
2023-05-04T09:41:58.161Z,99991.12
2023-05-04T09:44:27.487Z,99982.29
2023-05-04T09:46:57.919Z,99982.16
2023-05-04T09:49:32.901Z,99977.52
2023-05-04T09:52:04.051Z,99977.42
2023-05-04T09:54:35.031Z,99986.36
2023-05-04T09:57:12.247Z,99983.59
2023-05-04T09:59:40.004Z,99984.78
2023-05-04T10:02:21.200Z,99986.84
2023-05-04T10:04:57.502Z,99993.77
2023-05-04T10:07:25.171Z,99998.46
2023-05-04T10:09:53.403Z,99997.05
2023-05-04T10:12:20.562Z,99997.36
2023-05-04T10:14:47.675Z,99991.39
2023-05-04T10:17:27.466Z,99995.93
2023-05-04T10:20:07.816Z,99987.37
2023-05-04T10:22:51.702Z,99988.75
2023-05-04T10:25:22.663Z,99983.51
2023-05-04T10:28:11.086Z,99980.45
2023-05-04T10:30:40.255Z,99978.88
2023-05-04T10:33:08.036Z,99972.63
2023-05-04T10:35:35.482Z,99969.06
2023-05-04T10:38:04.466Z,99975.65
2023-05-04T10:40:39.745Z,99967.99
2023-05-04T10:43:08.453Z,99970.73
2023-05-04T10:45:40.162Z,99974.90
2023-05-04T10:48:08.594Z,99973.27
2023-05-04T10:50:44.014Z,99977.05
2023-05-04T10:53:12.357Z,99959.54
2023-05-04T10:55:41.807Z,99960.73
2023-05-04T10:58:11.366Z,99959.09
2023-05-04T11:00:40.532Z,99965.08
2023-05-04T11:03:08.325Z,99958.59
2023-05-04T11:05:43.432Z,99953.61
2023-05-04T11:08:22.353Z,99956.13
2023-05-04T11:11:01.630Z,99959.70
2023-05-04T11:13:35.179Z,99962.33
2023-05-04T11:16:02.633Z,99955.85
2023-05-04T11:18:31.824Z,99948.63
2023-05-04T11:20:59.030Z,99947.23
2023-05-04T11:23:26.586Z,99948.65
2023-05-04T11:25:55.226Z,99951.70
2023-05-04T11:28:43.273Z,99949.30
2023-05-04T11:31:14.509Z,99943.06
2023-05-04T11:33:48.976Z,99934.41
2023-05-04T11:36:16.699Z,99928.66
2023-05-04T11:38:43.984Z,99931.80
2023-05-04T11:41:15.253Z,99926.11
2023-05-04T11:43:44.161Z,99917.50
2023-05-04T11:46:11.856Z,99933.33
2023-05-04T11:48:40.006Z,99910.48
2023-05-04T11:51:07.656Z,99919.02
2023-05-04T11:53:39.229Z,99911.73
2023-05-04T11:56:08.860Z,99904.79
2023-05-04T11:58:36.873Z,99909.79
2023-05-04T12:01:04.541Z,99912.87
2023-05-04T12:03:50.979Z,99898.77
2023-05-04T12:06:31.426Z,99895.39
2023-05-04T12:09:04.698Z,99893.67
2023-05-04T12:11:32.094Z,99893.56
2023-05-04T12:14:02.316Z,99897.41
2023-05-04T12:16:29.497Z,99891.27
2023-05-04T12:19:08.433Z,99883.81
2023-05-04T12:21:36.444Z,99892.43
2023-05-04T12:24:04.069Z,99878.71
2023-05-04T12:26:31.419Z,99890.11
2023-05-04T12:28:58.746Z,99888.71
2023-05-04T12:31:26.369Z,99883.96
2023-05-04T12:33:53.657Z,99873.99
2023-05-04T12:36:21.700Z,99867.53
2023-05-04T12:38:48.935Z,99888.17
2023-05-04T12:41:16.274Z,99888.94
2023-05-04T12:43:43.294Z,99871.98
2023-05-04T12:46:10.673Z,99871.15
2023-05-04T12:48:38.037Z,99870.35
2023-05-04T12:51:05.291Z,99868.70
2023-05-04T12:53:32.686Z,99864.44
2023-05-04T12:56:01.447Z,99864.55
2023-05-04T12:58:28.856Z,99868.24
2023-05-04T13:00:58.105Z,99863.06
2023-05-04T13:03:25.537Z,99856.59
2023-05-04T13:05:52.947Z,99869.27
2023-05-04T13:08:20.118Z,99861.78
2023-05-04T13:10:47.490Z,99868.12
2023-05-04T13:13:17.341Z,99870.38
2023-05-04T13:15:45.084Z,99866.31
2023-05-04T13:18:13.408Z,99873.52
2023-05-04T13:20:41.045Z,99863.13
2023-05-04T13:23:08.423Z,99861.25
2023-05-04T13:25:35.679Z,99875.88
2023-05-04T13:28:03.573Z,99864.70
2023-05-04T13:30:31.207Z,99874.42
2023-05-04T13:32:58.617Z,99865.73
2023-05-04T13:35:25.709Z,99858.52
2023-05-04T13:37:53.105Z,99855.11
2023-05-04T13:40:20.724Z,99853.80
2023-05-04T13:42:48.434Z,99857.11
2023-05-04T13:45:15.807Z,99854.56
2023-05-04T13:47:43.571Z,99845.88
2023-05-04T13:50:10.802Z,99839.35
2023-05-04T13:52:38.665Z,99836.78
2023-05-04T13:55:06.335Z,99844.02
2023-05-04T13:57:33.575Z,99845.13
2023-05-04T14:00:07.618Z,99835.63
2023-05-04T14:02:38.853Z,99836.60
2023-05-04T14:05:08.203Z,99843.83
2023-05-04T14:07:35.665Z,99841.91
2023-05-04T14:10:03.938Z,99837.64
2023-05-04T14:12:31.454Z,99838.52
2023-05-04T14:14:59.287Z,99839.48
2023-05-04T14:17:26.608Z,99847.19
2023-05-04T14:19:53.905Z,99850.16
2023-05-04T14:22:21.522Z,99849.46
2023-05-04T14:24:50.208Z,99847.84
2023-05-04T14:27:17.713Z,99852.02
2023-05-04T14:29:47.146Z,99839.36
2023-05-04T14:32:15.665Z,99840.67
2023-05-04T14:34:42.916Z,99846.70
2023-05-04T14:37:10.766Z,99838.52
2023-05-04T14:39:39.560Z,99832.50
2023-05-04T14:42:07.045Z,99838.73
2023-05-04T14:44:34.515Z,99831.54
2023-05-04T14:47:06.084Z,99847.77
2023-05-04T14:49:37.676Z,99833.76
2023-05-04T14:52:05.445Z,99841.31
2023-05-04T14:54:32.735Z,99821.35
2023-05-04T14:57:00.409Z,99834.96
2023-05-04T14:59:27.978Z,99834.16
2023-05-04T15:01:55.738Z,99835.19
2023-05-04T15:04:23.151Z,99835.84
2023-05-04T15:06:50.491Z,99836.73
2023-05-04T15:09:17.615Z,99850.77
2023-05-04T15:11:44.965Z,99852.70
2023-05-04T15:14:12.217Z,99834.38
2023-05-04T15:16:39.231Z,99838.52
2023-05-04T15:19:07.185Z,99836.70
2023-05-04T15:21:34.510Z,99839.48
2023-05-04T15:24:02.187Z,99841.99
2023-05-04T15:26:31.171Z,99832.17
2023-05-04T15:28:58.755Z,99837.08
2023-05-04T15:31:26.068Z,99837.98
2023-05-04T15:33:53.999Z,99844.69
2023-05-04T15:36:21.260Z,99839.66
2023-05-04T15:38:48.269Z,99838.27
2023-05-04T15:41:16.082Z,99831.05
2023-05-04T15:43:43.344Z,99848.52
2023-05-04T15:46:10.479Z,99845.06
2023-05-04T15:48:37.721Z,99838.46
2023-05-04T15:51:11.044Z,99845.63
2023-05-04T15:53:38.904Z,99849.83
2023-05-04T15:56:06.481Z,99841.11
2023-05-04T15:58:34.128Z,99848.02
2023-05-04T16:01:04.152Z,99825.36
2023-05-04T16:03:32.276Z,99842.74
2023-05-04T16:06:00.064Z,99842.64
2023-05-04T16:08:27.817Z,99835.71
2023-05-04T16:10:55.878Z,99845.91
2023-05-04T16:13:23.296Z,99853.37
2023-05-04T16:15:54.056Z,99866.40
2023-05-04T16:18:21.260Z,99859.13
2023-05-04T16:20:48.903Z,99861.80
2023-05-04T16:23:17.837Z,99869.58
2023-05-04T16:25:44.912Z,99865.98
2023-05-04T16:28:12.668Z,99868.54
2023-05-04T16:30:42.476Z,99875.28
2023-05-04T16:33:09.701Z,99878.18
2023-05-04T16:35:37.766Z,99877.36
2023-05-04T16:38:05.941Z,99864.00
2023-05-04T16:40:33.108Z,99872.35
2023-05-04T16:43:00.487Z,99868.80
2023-05-04T16:45:31.428Z,99884.02
2023-05-04T16:47:59.001Z,99882.35
2023-05-04T16:50:26.257Z,99889.36
2023-05-04T16:52:53.585Z,99885.86
2023-05-04T16:55:21.174Z,99892.96
2023-05-04T16:57:48.930Z,99899.58
2023-05-04T17:00:17.163Z,99900.61
2023-05-04T17:02:44.301Z,99897.28
2023-05-04T17:05:11.971Z,99881.33
2023-05-04T17:07:43.579Z,99887.55
2023-05-04T17:10:10.923Z,99900.60
2023-05-04T17:12:38.869Z,99902.52
2023-05-04T17:15:06.750Z,99889.73
2023-05-04T17:17:33.824Z,99889.53
2023-05-04T17:20:01.156Z,99904.92
2023-05-04T17:22:28.644Z,99916.52
2023-05-04T17:24:55.699Z,99926.90
2023-05-04T17:27:23.625Z,99923.20
2023-05-04T17:29:51.282Z,99921.86
2023-05-04T17:32:18.458Z,99932.30
2023-05-04T17:34:45.916Z,99934.17
2023-05-04T17:37:13.070Z,99926.52
2023-05-04T17:39:40.188Z,99929.91
2023-05-04T17:42:07.686Z,99931.55
2023-05-04T17:44:35.012Z,99940.16
2023-05-04T17:47:02.115Z,99924.14
2023-05-04T17:49:29.600Z,99922.08
2023-05-04T17:51:56.892Z,99920.75
2023-05-04T17:54:24.020Z,99938.70
2023-05-04T17:56:51.247Z,99949.40
2023-05-04T17:59:18.737Z,99939.68
2023-05-04T18:01:46.280Z,99938.30
2023-05-04T18:04:13.455Z,99935.27
2023-05-04T18:06:40.713Z,99925.50
2023-05-04T18:09:07.824Z,99927.02
2023-05-04T18:11:35.232Z,99916.36
2023-05-04T18:14:02.744Z,99930.52
2023-05-04T18:16:29.934Z,99930.55
2023-05-04T18:18:58.389Z,99933.52
2023-05-04T18:21:26.281Z,99954.63
2023-05-04T18:23:53.443Z,99944.48
2023-05-04T18:26:22.952Z,99949.46
2023-05-04T18:28:50.598Z,99945.05
2023-05-04T18:31:17.784Z,99957.89
2023-05-04T18:33:45.518Z,99958.35
2023-05-04T18:36:13.088Z,99963.45
2023-05-04T18:38:41.047Z,99967.21
2023-05-04T18:41:08.079Z,99963.27
2023-05-04T18:43:35.549Z,99964.95
2023-05-04T18:46:08.916Z,99966.46
2023-05-04T18:48:36.764Z,99963.30
2023-05-04T18:51:04.317Z,99964.25
2023-05-04T18:53:31.626Z,99975.10
2023-05-04T18:56:07.015Z,99972.67
2023-05-04T18:58:35.907Z,99966.08
2023-05-04T19:01:08.657Z,99958.27
2023-05-04T19:03:35.735Z,99956.13
2023-05-04T19:06:03.260Z,99938.64
2023-05-04T19:08:30.338Z,99940.89
2023-05-04T19:11:03.080Z,99955.89
2023-05-04T19:13:31.617Z,99945.75
2023-05-04T19:15:58.819Z,99940.98
2023-05-04T19:18:25.924Z,99943.18
2023-05-04T19:20:54.746Z,99940.30
2023-05-04T19:23:21.876Z,99955.71
2023-05-04T19:25:49.178Z,99956.57
2023-05-04T19:28:16.463Z,99943.29
2023-05-04T19:30:43.624Z,99945.75
2023-05-04T19:33:10.722Z,99925.92
2023-05-04T19:35:37.977Z,99916.86
2023-05-04T19:49:54.657Z,99952.77
2023-05-04T19:52:21.904Z,99950.85
2023-05-04T19:54:53.785Z,99954.77
2023-05-04T19:57:21.723Z,99965.36
2023-05-04T19:59:49.037Z,99942.04
2023-05-04T20:02:16.112Z,99938.88
2023-05-04T20:04:43.435Z,99929.23
2023-05-04T20:07:10.837Z,99930.27
2023-05-04T20:09:41.128Z,99936.73
2023-05-04T20:12:08.632Z,99930.80
2023-05-04T20:14:36.244Z,99928.08
2023-05-04T20:17:04.061Z,99932.32
2023-05-04T20:19:31.336Z,99932.35
2023-05-04T20:21:59.016Z,99932.42
2023-05-04T20:24:26.892Z,99928.58
2023-05-04T20:26:54.280Z,99922.73
2023-05-04T20:29:22.046Z,99911.80
2023-05-04T20:31:49.369Z,99894.66
2023-05-04T20:34:18.794Z,99882.56
2023-05-04T20:36:47.165Z,99889.21
2023-05-04T20:39:14.343Z,99885.67
2023-05-04T20:41:41.537Z,99896.80
2023-05-04T20:44:08.940Z,99902.29
2023-05-04T20:46:36.182Z,99911.98
2023-05-04T20:49:04.012Z,99912.05
2023-05-04T20:51:31.682Z,99913.12
2023-05-04T20:53:58.869Z,99912.34
2023-05-04T20:56:26.508Z,99912.46
2023-05-04T20:58:53.735Z,99908.11
2023-05-04T21:01:21.637Z,99902.20
2023-05-04T21:03:48.945Z,99899.92
2023-05-04T21:06:16.312Z,99899.13
2023-05-04T21:08:43.419Z,99891.56
2023-05-04T21:11:10.538Z,99891.45
2023-05-04T21:13:37.771Z,99892.00
2023-05-04T21:16:05.517Z,99886.96
2023-05-04T21:18:32.510Z,99890.19
2023-05-04T21:20:59.725Z,99892.51
2023-05-04T21:23:27.266Z,99889.09
2023-05-04T21:26:02.538Z,99883.98
2023-05-04T21:28:30.838Z,99883.11
2023-05-04T21:30:59.015Z,99880.17
2023-05-04T21:33:26.448Z,99881.11
2023-05-04T21:35:53.802Z,99867.04
2023-05-04T21:38:22.219Z,99870.41
2023-05-04T21:40:49.780Z,99891.52
2023-05-04T21:43:17.138Z,99918.21
2023-05-04T21:45:44.521Z,99932.36
2023-05-04T21:48:11.844Z,99930.33
2023-05-04T21:50:39.751Z,99930.26
2023-05-04T21:53:06.959Z,99932.34
2023-05-04T21:56:56.528Z,99926.98
2023-05-04T21:59:24.296Z,99910.36
2023-05-04T22:01:51.410Z,99882.36
2023-05-04T22:04:18.926Z,99858.52
2023-05-04T22:06:47.775Z,99835.02
2023-05-04T22:09:16.035Z,99818.90
2023-05-04T22:11:43.129Z,99832.65
2023-05-04T22:14:10.907Z,99871.66
2023-05-04T22:16:38.034Z,99894.94
2023-05-04T22:19:05.157Z,99909.88
2023-05-04T22:21:33.149Z,99911.27
2023-05-04T22:24:00.594Z,99911.90
2023-05-04T22:26:27.744Z,99910.86
2023-05-04T22:28:55.116Z,99911.15
2023-05-04T22:31:22.468Z,99911.64
2023-05-04T22:33:49.608Z,99917.09
2023-05-04T22:36:17.073Z,99927.02
2023-05-04T22:38:44.230Z,99930.77
2023-05-04T22:41:13.617Z,99929.02
2023-05-04T22:43:41.415Z,99919.82
2023-05-04T22:46:14.763Z,99907.27
2023-05-04T22:48:42.413Z,99892.39
2023-05-04T22:51:09.482Z,99880.95
2023-05-04T22:53:36.671Z,99883.73
2023-05-04T22:56:03.874Z,99885.21
2023-05-04T22:58:30.950Z,99885.17
2023-05-04T23:00:58.106Z,99887.41
2023-05-04T23:03:25.562Z,99891.37
2023-05-04T23:05:52.850Z,99889.23
2023-05-04T23:08:20.450Z,99887.98
2023-05-04T23:10:47.819Z,99896.45
2023-05-04T23:13:14.921Z,99890.84
2023-05-04T23:15:42.439Z,99891.49
2023-05-04T23:18:10.640Z,99887.76
2023-05-04T23:20:37.816Z,99881.25
2023-05-04T23:23:04.998Z,99878.88
2023-05-04T23:25:32.163Z,99884.11
2023-05-04T23:27:59.169Z,99891.80
2023-05-04T23:30:26.608Z,99892.13
2023-05-04T23:32:53.719Z,99890.36
2023-05-04T23:35:21.149Z,99885.85
2023-05-04T23:37:48.377Z,99878.83
2023-05-04T23:40:15.927Z,99872.48
2023-05-04T23:42:43.006Z,99873.13
2023-05-04T23:45:10.763Z,99868.90
2023-05-04T23:47:38.255Z,99871.95
2023-05-04T23:50:06.455Z,99871.41
2023-05-04T23:52:34.036Z,99866.09
2023-05-04T23:55:01.185Z,99868.33
2023-05-04T23:57:28.276Z,99865.31
2023-05-04T23:59:55.338Z,99865.38
